createdAt,value
2023-01-26T00:03:24.089Z,25.42
2023-01-26T00:05:50.780Z,22.65
2023-01-26T00:10:50.462Z,23.45
2023-01-26T00:13:22.835Z,23.85
2023-01-26T00:15:49.535Z,25.05
2023-01-26T00:20:42.768Z,22.13
2023-01-26T00:25:39.948Z,25.00
2023-01-26T00:28:06.664Z,26.67
2023-01-26T00:32:59.920Z,25.42
2023-01-26T00:37:54.729Z,25.98
2023-01-26T00:40:21.379Z,25.10
2023-01-26T00:45:14.789Z,23.65
2023-01-26T00:47:41.635Z,27.88
2023-01-26T00:50:09.608Z,27.42
2023-01-26T00:52:36.484Z,26.55
2023-01-26T00:57:29.802Z,25.15
2023-01-26T00:59:56.725Z,27.88
2023-01-26T01:02:25.109Z,28.65
2023-01-26T01:04:51.812Z,28.95
2023-01-26T01:07:19.020Z,29.20
2023-01-26T01:09:46.711Z,29.70
2023-01-26T01:12:13.362Z,28.58
2023-01-26T01:14:40.023Z,28.25
2023-01-26T01:19:34.705Z,28.10
2023-01-26T01:24:28.093Z,25.77
2023-01-26T01:26:55.010Z,28.77
2023-01-26T01:31:48.330Z,26.55
2023-01-26T01:36:41.678Z,24.90
2023-01-26T01:41:35.343Z,26.85
2023-01-26T01:44:23.094Z,26.98
2023-01-26T01:46:58.813Z,25.92
2023-01-26T01:49:50.692Z,27.10
2023-01-26T01:52:26.038Z,26.15
2023-01-26T01:55:02.004Z,27.23
2023-01-26T01:57:44.928Z,28.77
2023-01-26T02:00:15.081Z,28.75
2023-01-26T02:02:44.331Z,28.58
2023-01-26T02:05:25.174Z,28.08
2023-01-26T02:07:52.050Z,27.02
2023-01-26T02:10:20.783Z,27.35
2023-01-26T02:12:51.666Z,27.90
2023-01-26T02:15:18.311Z,28.52
2023-01-26T02:17:45.637Z,27.65
2023-01-26T02:20:51.676Z,28.55
2023-01-26T02:23:36.077Z,27.27
2023-01-26T02:26:09.111Z,25.83
2023-01-26T02:28:35.799Z,29.40
2023-01-26T02:36:02.765Z,25.05
2023-01-26T02:39:08.718Z,25.67
2023-01-26T02:41:54.025Z,25.90
2023-01-26T02:44:23.822Z,26.33
2023-01-26T02:46:50.887Z,29.30
2023-01-26T02:49:36.547Z,27.77
2023-01-26T02:52:05.832Z,28.63
2023-01-26T02:54:52.354Z,26.73
2023-01-26T02:57:19.165Z,26.80
2023-01-26T02:59:45.897Z,25.83
2023-01-26T03:02:14.396Z,29.45
2023-01-26T03:04:42.044Z,27.55
2023-01-26T03:07:08.750Z,28.98
2023-01-26T03:12:02.376Z,26.83
2023-01-26T03:14:29.102Z,24.60
2023-01-26T03:19:41.913Z,28.40
2023-01-26T03:22:29.642Z,28.13
2023-01-26T03:25:16.405Z,26.40
2023-01-26T03:27:48.052Z,29.63
2023-01-26T03:30:19.498Z,25.92
2023-01-26T03:32:48.138Z,23.85
2023-01-26T03:35:22.541Z,30.60
2023-01-26T03:37:54.656Z,27.48
2023-01-26T03:41:06.372Z,29.08
2023-01-26T03:43:51.892Z,29.42
2023-01-26T03:46:37.314Z,28.75
2023-01-26T03:49:23.766Z,25.85
2023-01-26T03:52:12.442Z,28.40
2023-01-26T03:54:57.786Z,26.33
2023-01-26T03:57:24.809Z,29.95
2023-01-26T04:02:39.779Z,28.00
2023-01-26T04:05:27.777Z,28.05
2023-01-26T04:08:21.456Z,24.88
2023-01-26T04:10:51.002Z,26.45
2023-01-26T04:13:37.534Z,26.50
2023-01-26T04:16:28.050Z,25.88
2023-01-26T04:19:14.522Z,22.67
2023-01-26T04:21:41.178Z,24.13
2023-01-26T04:24:17.327Z,26.38
2023-01-26T04:26:45.285Z,27.85
2023-01-26T04:29:17.422Z,26.40
2023-01-26T04:31:46.001Z,25.80
2023-01-26T04:34:16.013Z,26.90
2023-01-26T04:36:43.799Z,28.55
2023-01-26T04:39:10.846Z,24.58
2023-01-26T04:41:43.828Z,28.73
2023-01-26T04:44:13.709Z,27.70
2023-01-26T04:46:40.670Z,26.77
2023-01-26T04:49:07.358Z,28.00
2023-01-26T04:51:34.682Z,28.73
2023-01-26T04:54:01.360Z,27.92
2023-01-26T04:56:30.753Z,29.63
2023-01-26T04:59:00.678Z,29.70
2023-01-26T05:01:27.706Z,28.05
2023-01-26T05:03:54.801Z,30.25
2023-01-26T05:06:22.620Z,29.92
2023-01-26T05:08:50.191Z,27.45
2023-01-26T05:11:19.071Z,28.60
2023-01-26T05:14:04.686Z,26.70
2023-01-26T05:16:56.029Z,28.88
2023-01-26T05:19:49.069Z,31.60
2023-01-26T05:22:20.807Z,30.17
2023-01-26T05:25:07.799Z,28.98
2023-01-26T05:27:41.277Z,28.25
2023-01-26T05:30:09.692Z,30.55
2023-01-26T05:32:38.953Z,28.45
2023-01-26T05:35:07.280Z,31.20
2023-01-26T05:37:34.619Z,30.92
2023-01-26T05:40:01.329Z,27.80
2023-01-26T05:42:29.426Z,28.15
2023-01-26T05:45:07.438Z,27.58
2023-01-26T05:47:36.065Z,28.85
2023-01-26T05:50:02.811Z,26.77
2023-01-26T05:52:32.019Z,28.20
2023-01-26T05:54:59.858Z,29.95
2023-01-26T05:57:26.566Z,28.27
2023-01-26T05:59:57.997Z,28.00
2023-01-26T06:02:27.149Z,30.25
2023-01-26T06:04:53.881Z,27.85
2023-01-26T06:07:20.662Z,27.60
2023-01-26T06:09:56.197Z,25.88
2023-01-26T06:12:42.901Z,27.85
2023-01-26T06:15:32.545Z,25.40
2023-01-26T06:20:27.318Z,24.38
2023-01-26T06:23:04.106Z,24.63
2023-01-26T06:25:34.574Z,23.20
2023-01-26T06:28:01.426Z,26.13
2023-01-26T06:30:29.397Z,25.77
2023-01-26T06:33:01.341Z,23.85
2023-01-26T06:35:29.166Z,21.15
2023-01-26T06:37:59.216Z,22.50
2023-01-26T06:42:52.566Z,25.27
2023-01-26T06:45:20.703Z,25.48
2023-01-26T06:47:49.838Z,24.70
2023-01-26T06:50:19.657Z,22.83
2023-01-26T06:52:51.303Z,25.35
2023-01-26T06:55:38.820Z,25.02
2023-01-26T06:58:26.938Z,22.60
2023-01-26T07:01:18.932Z,23.43
2023-01-26T07:03:47.470Z,22.70
2023-01-26T07:06:14.248Z,24.42
2023-01-26T07:08:41.345Z,25.50
2023-01-26T07:11:09.653Z,26.50
2023-01-26T07:13:36.348Z,22.73
2023-01-26T07:18:34.448Z,23.85
2023-01-26T07:21:02.403Z,22.90
2023-01-26T07:23:29.542Z,22.98
2023-01-26T07:25:56.605Z,23.70
2023-01-26T07:28:23.561Z,24.73
2023-01-26T07:30:50.247Z,26.45
2023-01-26T07:35:43.573Z,22.58
2023-01-26T07:40:37.070Z,23.73
2023-01-26T07:45:51.678Z,25.15
2023-01-26T07:48:23.697Z,23.83
2023-01-26T07:50:50.793Z,24.02
2023-01-26T07:53:22.814Z,24.65
2023-01-26T07:55:49.705Z,26.10
2023-01-26T07:58:18.501Z,23.63
2023-01-26T08:00:47.235Z,25.35
2023-01-26T08:03:14.424Z,25.27
2023-01-26T08:05:43.110Z,25.42
2023-01-26T08:08:10.196Z,25.00
2023-01-26T08:13:03.739Z,25.20
2023-01-26T08:15:30.534Z,25.15
2023-01-26T08:22:58.706Z,24.17
2023-01-26T08:25:26.973Z,22.77
2023-01-26T08:30:21.263Z,21.90
2023-01-26T08:32:48.049Z,22.85
2023-01-26T08:35:14.820Z,22.45
2023-01-26T08:37:41.441Z,23.92
2023-01-26T08:42:35.807Z,21.77
2023-01-26T08:47:29.129Z,24.55
2023-01-26T08:52:22.581Z,25.08
2023-01-26T08:57:16.383Z,24.02
2023-01-26T08:59:43.018Z,25.83
2023-01-26T09:04:37.107Z,23.45
2023-01-26T09:09:30.589Z,25.27
2023-01-26T09:14:24.483Z,25.65
2023-01-26T09:16:51.321Z,26.55
2023-01-26T09:19:18.084Z,29.13
2023-01-26T09:24:11.665Z,26.48
2023-01-26T09:26:38.729Z,29.00
2023-01-26T09:29:05.426Z,26.48
2023-01-26T09:33:58.906Z,28.83
2023-01-26T09:38:53.951Z,26.70
2023-01-26T09:41:46.428Z,26.65
2023-01-26T09:44:24.124Z,25.70
2023-01-26T09:46:56.671Z,30.20
2023-01-26T09:49:35.229Z,26.88
2023-01-26T09:52:10.372Z,24.05
2023-01-26T09:54:44.022Z,27.17
2023-01-26T09:57:17.403Z,27.48
2023-01-26T09:59:47.242Z,27.58
2023-01-26T10:02:33.706Z,27.38
2023-01-26T10:05:07.981Z,25.95
2023-01-26T10:08:50.261Z,25.30
2023-01-26T10:11:41.168Z,27.23
2023-01-26T10:14:07.876Z,26.67
2023-01-26T10:19:12.311Z,25.30
2023-01-26T10:21:44.051Z,26.23
2023-01-26T10:24:14.185Z,27.35
2023-01-26T10:26:41.681Z,26.17
2023-01-26T10:29:15.615Z,28.00
2023-01-26T10:31:44.061Z,26.45
2023-01-26T10:34:17.712Z,27.73
2023-01-26T10:36:46.358Z,30.90
2023-01-26T10:39:15.705Z,26.73
2023-01-26T10:42:00.745Z,27.38
2023-01-26T10:44:30.394Z,29.27
2023-01-26T10:47:18.707Z,28.70
2023-01-26T10:49:45.489Z,26.88
2023-01-26T10:52:18.950Z,28.35
2023-01-26T10:54:46.297Z,25.45
2023-01-26T10:57:22.840Z,28.98
2023-01-26T10:59:51.246Z,28.95
2023-01-26T11:02:22.503Z,27.60
2023-01-26T11:05:09.770Z,28.25
2023-01-26T11:07:42.124Z,27.42
2023-01-26T11:10:23.409Z,27.55
2023-01-26T11:12:51.537Z,27.27
2023-01-26T11:15:19.849Z,28.02
2023-01-26T11:18:12.770Z,29.42
2023-01-26T11:20:48.301Z,27.23
2023-01-26T11:23:42.676Z,28.15
2023-01-26T11:26:21.597Z,24.83
2023-01-26T11:29:00.472Z,24.38
2023-01-26T11:31:32.759Z,25.80
2023-01-26T11:34:27.390Z,27.95
2023-01-26T11:37:31.515Z,25.90
2023-01-26T11:40:09.721Z,26.70
2023-01-26T11:42:43.255Z,27.67
2023-01-26T11:45:17.694Z,25.83
2023-01-26T11:47:59.861Z,26.00
2023-01-26T11:50:44.011Z,28.13
2023-01-26T11:53:41.700Z,23.67
2023-01-26T11:56:11.264Z,25.17
2023-01-26T11:58:42.697Z,22.63
2023-01-26T12:01:33.931Z,23.92
2023-01-26T12:04:00.633Z,22.10
2023-01-26T12:09:32.523Z,21.65
2023-01-26T12:12:04.616Z,24.45
2023-01-26T12:14:55.279Z,23.67
2023-01-26T12:17:32.189Z,23.38
2023-01-26T12:20:06.013Z,21.50
2023-01-26T12:22:42.060Z,23.65
2023-01-26T12:25:26.882Z,25.38
2023-01-26T12:28:02.723Z,26.33
2023-01-26T12:30:49.901Z,22.42
2023-01-26T12:33:16.865Z,23.27
2023-01-26T12:35:52.578Z,23.50
2023-01-26T12:38:28.095Z,23.77
2023-01-26T12:41:10.459Z,23.35
2023-01-26T12:43:43.382Z,24.73
2023-01-26T12:46:11.905Z,23.55
2023-01-26T12:48:47.271Z,23.80
2023-01-26T12:51:24.642Z,23.60
2023-01-26T12:54:20.148Z,23.67
2023-01-26T12:56:53.494Z,26.35
2023-01-26T12:59:46.379Z,23.42
2023-01-26T13:02:34.203Z,20.80
2023-01-26T13:05:03.166Z,17.65
2023-01-26T13:07:35.721Z,21.52
2023-01-26T13:10:19.422Z,20.02
2023-01-26T13:13:21.316Z,22.60
2023-01-26T13:16:08.039Z,24.42
2023-01-26T13:18:49.638Z,23.95
2023-01-26T13:21:42.605Z,23.38
2023-01-26T13:24:18.735Z,25.08
2023-01-26T13:26:59.143Z,21.95
2023-01-26T13:29:25.933Z,22.75
2023-01-26T13:32:16.935Z,21.42
2023-01-26T13:34:49.518Z,23.13
2023-01-26T13:37:23.700Z,24.25
2023-01-26T13:40:03.840Z,22.35
2023-01-26T13:42:37.761Z,20.55
2023-01-26T13:45:13.898Z,21.02
2023-01-26T13:47:48.761Z,20.27
2023-01-26T13:50:42.001Z,19.95
2023-01-26T13:53:36.137Z,17.90
2023-01-26T13:56:06.189Z,20.33
2023-01-26T13:58:33.983Z,20.70
2023-01-26T14:01:12.515Z,24.58
2023-01-26T14:03:39.207Z,22.75
2023-01-26T14:08:37.602Z,22.25
2023-01-26T14:11:14.981Z,21.52
2023-01-26T14:13:41.890Z,20.35
2023-01-26T14:16:26.257Z,19.90
2023-01-26T14:19:13.680Z,18.20
2023-01-26T14:22:00.324Z,18.30
2023-01-26T14:24:34.525Z,19.88
2023-01-26T14:27:03.745Z,18.42
2023-01-26T14:29:30.931Z,18.58
2023-01-26T14:31:59.537Z,18.98
2023-01-26T14:34:29.577Z,22.58
2023-01-26T14:37:17.109Z,20.45
2023-01-26T14:39:47.733Z,20.27
2023-01-26T14:42:16.452Z,19.60
2023-01-26T14:44:43.198Z,21.30
2023-01-26T14:47:23.687Z,19.00
2023-01-26T14:50:01.511Z,19.08
2023-01-26T14:52:33.687Z,20.13
2023-01-26T14:55:07.008Z,20.05
2023-01-26T14:57:33.834Z,19.33
2023-01-26T15:00:02.560Z,19.60
2023-01-26T15:02:44.182Z,20.50
2023-01-26T15:05:18.060Z,18.08
2023-01-26T15:07:57.985Z,18.95
2023-01-26T15:10:27.663Z,17.83
2023-01-26T15:13:22.251Z,20.63
2023-01-26T15:16:05.800Z,18.85
2023-01-26T15:18:34.084Z,20.63
2023-01-26T15:21:11.278Z,18.20
2023-01-26T15:26:32.097Z,15.57
2023-01-26T15:29:01.596Z,16.00
2023-01-26T15:31:30.449Z,15.35
2023-01-26T15:33:58.731Z,16.23
2023-01-26T15:36:34.447Z,18.73
2023-01-26T15:39:10.813Z,16.67
2023-01-26T15:41:37.636Z,18.10
2023-01-26T15:44:04.500Z,17.40
2023-01-26T15:46:31.421Z,19.25
2023-01-26T15:48:58.104Z,19.05
2023-01-26T15:53:51.382Z,18.30
2023-01-26T15:58:44.811Z,15.75
2023-01-26T16:01:18.571Z,15.48
2023-01-26T16:03:45.571Z,16.05
2023-01-26T16:06:33.241Z,16.73
2023-01-26T16:09:00.070Z,17.95
2023-01-26T16:11:30.986Z,16.15
2023-01-26T16:14:03.776Z,19.02
2023-01-26T16:16:31.696Z,17.77
2023-01-26T16:18:58.451Z,18.00
2023-01-26T16:23:52.596Z,16.98
2023-01-26T16:26:19.837Z,15.35
2023-01-26T16:28:47.406Z,15.20
2023-01-26T16:31:22.805Z,18.20
2023-01-26T16:33:50.493Z,17.73
2023-01-26T16:36:19.324Z,18.08
2023-01-26T16:38:47.074Z,17.02
2023-01-26T16:41:28.625Z,18.13
2023-01-26T16:43:57.589Z,15.50
2023-01-26T16:46:25.330Z,16.15
2023-01-26T16:48:52.436Z,16.02
2023-01-26T16:51:28.907Z,16.65
2023-01-26T16:53:56.157Z,15.32
2023-01-26T16:56:24.600Z,15.90
2023-01-26T16:58:51.874Z,16.10
2023-01-26T17:01:34.719Z,19.30
2023-01-26T17:04:02.309Z,16.27
2023-01-26T17:06:29.451Z,17.08
2023-01-26T17:08:56.195Z,16.17
2023-01-26T17:11:28.506Z,14.38
2023-01-26T17:13:56.640Z,14.98
2023-01-26T17:16:26.988Z,14.65
2023-01-26T17:18:53.742Z,13.68
2023-01-26T17:23:51.560Z,14.33
2023-01-26T17:26:19.773Z,13.10
2023-01-26T17:28:49.190Z,13.07
2023-01-26T17:31:19.367Z,15.55
2023-01-26T17:33:48.268Z,16.23
2023-01-26T17:36:16.006Z,15.40
2023-01-26T17:38:42.960Z,14.10
2023-01-26T17:41:09.936Z,14.35
2023-01-26T17:43:36.700Z,19.42
2023-01-26T17:48:37.479Z,14.82
2023-01-26T17:51:16.663Z,13.57
2023-01-26T17:53:44.901Z,15.05
2023-01-26T17:56:14.678Z,15.18
2023-01-26T17:58:41.717Z,14.85
2023-01-26T18:01:10.346Z,14.80
2023-01-26T18:03:41.577Z,13.75
2023-01-26T18:06:08.992Z,13.82
2023-01-26T18:08:36.854Z,13.55
2023-01-26T18:11:05.482Z,12.63
2023-01-26T18:13:32.819Z,12.43
2023-01-26T18:16:00.217Z,12.00
2023-01-26T18:18:29.211Z,14.60
2023-01-26T18:20:56.483Z,13.80
2023-01-26T18:23:24.307Z,12.63
2023-01-26T18:25:51.047Z,12.25
2023-01-26T18:30:44.594Z,14.40
2023-01-26T18:33:11.366Z,15.45
2023-01-26T18:38:04.863Z,12.40
2023-01-26T18:40:31.796Z,13.20
2023-01-26T18:42:58.426Z,13.50
2023-01-26T18:47:51.884Z,14.25
2023-01-26T18:50:18.748Z,13.73
2023-01-26T18:52:45.542Z,15.45
2023-01-26T18:55:12.906Z,14.35
2023-01-26T18:57:39.877Z,14.30
2023-01-26T19:00:08.811Z,14.45
2023-01-26T19:02:38.592Z,13.15
2023-01-26T19:05:08.937Z,13.07
2023-01-26T19:07:35.654Z,13.73
2023-01-26T19:12:31.550Z,12.38
2023-01-26T19:14:58.281Z,12.32
2023-01-26T19:17:25.052Z,12.75
2023-01-26T19:22:18.479Z,12.85
2023-01-26T19:24:45.482Z,14.98
2023-01-26T19:27:12.251Z,14.77
2023-01-26T19:29:38.904Z,14.15
2023-01-26T19:34:33.641Z,11.30
2023-01-26T19:37:00.466Z,13.43
2023-01-26T19:39:27.190Z,12.25
2023-01-26T19:41:53.891Z,10.80
2023-01-26T19:46:50.921Z,12.73
2023-01-26T19:49:17.786Z,14.10
2023-01-26T19:51:44.455Z,13.38
2023-01-26T19:56:37.909Z,11.68
2023-01-26T19:59:07.938Z,13.50
2023-01-26T20:01:35.077Z,12.02
2023-01-26T20:04:04.308Z,12.40
2023-01-26T20:06:33.727Z,14.20
2023-01-26T20:09:03.429Z,12.05
2023-01-26T20:11:30.348Z,12.27
2023-01-26T20:14:01.409Z,13.43
2023-01-26T20:16:29.745Z,13.48
2023-01-26T20:18:57.478Z,13.73
2023-01-26T20:21:25.189Z,16.25
2023-01-26T20:23:55.364Z,14.35
2023-01-26T20:26:23.733Z,13.88
2023-01-26T20:28:50.586Z,14.45
2023-01-26T20:31:20.360Z,15.18
2023-01-26T20:33:48.946Z,13.93
2023-01-26T20:36:19.283Z,13.00
2023-01-26T20:38:48.195Z,13.38
2023-01-26T20:41:18.010Z,13.90
2023-01-26T20:43:58.615Z,12.65
2023-01-26T20:46:28.020Z,14.23
2023-01-26T20:48:56.031Z,12.90
2023-01-26T20:51:29.394Z,13.55
2023-01-26T20:53:57.389Z,15.48
2023-01-26T20:56:24.269Z,13.52
2023-01-26T20:58:55.056Z,13.00
2023-01-26T21:01:22.943Z,13.23
2023-01-26T21:03:49.813Z,12.93
2023-01-26T21:06:20.749Z,13.20
2023-01-26T21:08:48.584Z,13.07
2023-01-26T21:11:17.137Z,12.80
2023-01-26T21:13:44.323Z,13.20
2023-01-26T21:16:13.631Z,13.05
2023-01-26T21:18:40.518Z,12.90
2023-01-26T21:21:10.263Z,13.95
2023-01-26T21:23:37.072Z,13.70
2023-01-26T21:26:07.543Z,12.57
2023-01-26T21:28:34.178Z,13.35
2023-01-26T21:36:00.668Z,12.90
2023-01-26T21:38:31.241Z,11.05
2023-01-26T21:41:02.955Z,10.70
2023-01-26T21:43:30.515Z,11.35
2023-01-26T21:45:58.566Z,9.65
2023-01-26T21:48:31.669Z,11.20
2023-01-26T21:51:17.642Z,12.18
2023-01-26T21:53:45.057Z,12.45
2023-01-26T21:56:14.524Z,13.32
2023-01-26T21:59:02.326Z,11.43
2023-01-26T22:03:57.968Z,11.25
2023-01-26T22:06:25.656Z,12.77
2023-01-26T22:08:53.478Z,13.00
2023-01-26T22:11:20.886Z,11.98
2023-01-26T22:13:47.840Z,13.02
2023-01-26T22:16:15.057Z,12.13
2023-01-26T22:18:42.008Z,13.25
2023-01-26T22:21:08.743Z,13.75
2023-01-26T22:26:11.569Z,10.25
2023-01-26T22:28:38.261Z,11.98
2023-01-26T22:33:35.992Z,12.30
2023-01-26T22:36:06.965Z,11.73
2023-01-26T22:38:34.956Z,11.63
2023-01-26T22:41:03.278Z,9.93
2023-01-26T22:43:31.102Z,12.10
2023-01-26T22:46:03.589Z,11.40
2023-01-26T22:48:31.677Z,9.15
2023-01-26T22:51:05.554Z,11.35
2023-01-26T22:53:32.260Z,10.73
2023-01-26T22:58:25.594Z,12.85
2023-01-26T23:00:52.237Z,11.13
2023-01-26T23:05:47.652Z,11.35
2023-01-26T23:08:14.350Z,12.82
2023-01-26T23:13:08.065Z,12.13
2023-01-26T23:15:37.584Z,11.02
2023-01-26T23:18:04.419Z,11.05
2023-01-26T23:20:31.066Z,10.23
2023-01-26T23:25:43.325Z,10.95
2023-01-26T23:28:09.991Z,10.65
2023-01-26T23:33:03.404Z,12.23
2023-01-26T23:35:30.028Z,12.30
2023-01-26T23:40:23.359Z,11.45
2023-01-26T23:45:36.626Z,9.43
2023-01-26T23:50:30.089Z,9.10
2023-01-26T23:52:56.915Z,9.82
2023-01-26T23:55:23.784Z,11.32
2023-01-26T23:57:50.669Z,10.68
